Time;durP1;ratioP1;P1;durP2;ratioP2;P2;SDS_P1;SDS_P2;PMS_P1;PMS_P2;Temp;Humidity;BMP_temperature;BMP_pressure;BME280_temperature;BME280_humidity;BME280_pressure;Samples;Min_cycle;Max_cycle;Signal;HPM_P1;HPM_P2
2023/09/17 00:00:42;;;;;;;7.70;5.90;;;;;;;27.09;42.83;101546.28;102959;1291;61497;-82
2023/09/17 00:03:09;;;;;;;7.90;5.80;;;;;;;27.08;42.89;101547.92;103050;1291;61426;-82
2023/09/17 00:05:34;;;;;;;6.00;5.40;;;;;;;27.08;42.86;101542.34;102722;1291;61481;-82
2023/09/17 00:08:00;;;;;;;6.80;5.90;;;;;;;27.09;42.90;101540.52;103483;1294;61369;-82
2023/09/17 00:10:26;;;;;;;6.80;5.50;;;;;;;27.08;42.67;101541.08;103250;1293;61350;-82
2023/09/17 00:12:55;;;;;;;8.80;6.00;;;;;;;27.09;42.88;101538.70;103335;1292;59908;-82
2023/09/17 00:15:22;;;;;;;6.70;5.70;;;;;;;27.08;42.93;101532.41;102999;1294;62082;-81
2023/09/17 00:17:48;;;;;;;6.60;5.60;;;;;;;27.08;42.92;101532.95;102781;1294;61502;-82
2023/09/17 00:20:14;;;;;;;6.40;5.60;;;;;;;27.09;42.78;101531.67;102872;1294;61393;-82
2023/09/17 00:22:40;;;;;;;6.60;5.20;;;;;;;27.09;42.72;101532.04;103043;1292;61499;-81
2023/09/17 00:25:06;;;;;;;6.10;5.40;;;;;;;27.09;42.76;101533.66;103552;1294;61442;-81
2023/09/17 00:27:32;;;;;;;6.40;5.70;;;;;;;27.09;42.59;101528.39;104056;1292;61472;-82
2023/09/17 00:29:59;;;;;;;7.90;5.70;;;;;;;27.09;42.73;101527.48;105967;1296;58780;-82
2023/09/17 00:32:25;;;;;;;6.40;5.40;;;;;;;27.10;42.92;101527.98;105876;1293;58421;-82
2023/09/17 00:34:51;;;;;;;7.30;5.70;;;;;;;27.10;42.76;101523.92;105044;1294;59044;-82
2023/09/17 00:37:17;;;;;;;6.60;5.60;;;;;;;27.12;42.74;101523.14;103755;1292;62274;-82
2023/09/17 00:39:43;;;;;;;6.10;5.50;;;;;;;27.12;42.90;101523.96;105345;1293;61394;-82
2023/09/17 00:42:09;;;;;;;6.10;5.40;;;;;;;27.14;42.84;101518.62;103471;1292;61801;-82
2023/09/17 00:44:35;;;;;;;6.50;5.60;;;;;;;27.14;42.71;101516.59;102972;1294;65756;-82
2023/09/17 00:47:03;;;;;;;6.10;5.40;;;;;;;27.15;42.51;101511.31;103008;1294;61411;-82
2023/09/17 00:49:29;;;;;;;7.10;5.90;;;;;;;27.15;42.64;101508.03;102751;1297;61265;-82
2023/09/17 00:51:55;;;;;;;8.50;5.50;;;;;;;27.14;42.48;101507.71;102968;1295;61397;-82
2023/09/17 00:54:22;;;;;;;6.10;5.40;;;;;;;27.14;42.79;101509.77;102912;1294;61863;-82
2023/09/17 00:56:49;;;;;;;6.90;5.60;;;;;;;27.13;42.64;101511.27;103238;1294;62382;-82
2023/09/17 00:59:15;;;;;;;6.50;5.60;;;;;;;27.12;42.51;101512.23;102984;1294;61412;-82
2023/09/17 01:01:42;;;;;;;6.20;5.40;;;;;;;27.12;42.71;101513.30;102960;1300;61284;-82
2023/09/17 01:04:07;;;;;;;6.60;5.90;;;;;;;27.12;42.57;101514.60;102802;1299;61404;-82
2023/09/17 01:06:35;;;;;;;6.30;5.50;;;;;;;27.12;42.52;101511.75;103174;1294;61064;-81
2023/09/17 01:09:00;;;;;;;6.60;5.40;;;;;;;27.11;42.65;101512.15;103451;1294;61287;-81
2023/09/17 01:11:26;;;;;;;6.60;5.30;;;;;;;27.10;42.61;101508.80;102977;1299;61422;-82
2023/09/17 01:13:58;;;;;;;6.90;5.30;;;;;;;27.10;42.50;101510.42;102990;1293;61410;-83
2023/09/17 01:16:26;;;;;;;6.70;5.80;;;;;;;27.09;42.66;101513.02;102754;1294;61370;-83
2023/09/17 01:18:55;;;;;;;6.80;5.70;;;;;;;27.09;42.63;101509.62;102991;1298;61747;-83
2023/09/17 01:21:27;;;;;;;6.80;5.80;;;;;;;27.09;42.69;101506.58;102939;1295;61368;-83
2023/09/17 01:24:17;;;;;;;7.50;5.90;;;;;;;27.08;42.61;101506.05;103075;1293;65606;-82
2023/09/17 01:26:43;;;;;;;6.40;5.40;;;;;;;27.08;42.72;101503.39;103015;1292;61383;-82
2023/09/17 01:29:12;;;;;;;6.40;5.50;;;;;;;27.08;42.62;101502.69;102767;1299;61417;-82
2023/09/17 01:31:38;;;;;;;6.10;5.20;;;;;;;27.07;42.68;101505.59;102774;1299;63768;-82
2023/09/17 01:34:04;;;;;;;7.80;5.70;;;;;;;27.07;42.49;101506.19;102900;1297;61278;-83
2023/09/17 01:36:34;;;;;;;6.80;5.50;;;;;;;27.07;42.56;101506.71;102953;1294;61482;-83
2023/09/17 01:39:13;;;;;;;6.40;5.30;;;;;;;27.06;42.53;101504.61;102943;1298;61442;-82
2023/09/17 01:41:39;;;;;;;6.90;5.80;;;;;;;27.06;42.45;101503.20;102748;1297;63893;-82
2023/09/17 01:44:05;;;;;;;6.20;5.00;;;;;;;27.06;42.35;101501.23;102835;1294;62149;-82
2023/09/17 01:46:32;;;;;;;6.30;5.40;;;;;;;27.06;42.40;101500.50;102926;1298;62275;-83
2023/09/17 01:48:58;;;;;;;6.50;5.60;;;;;;;27.06;42.46;101502.67;102710;1295;61323;-82
2023/09/17 01:51:25;;;;;;;8.30;5.50;;;;;;;27.06;42.42;101504.84;102956;1294;61463;-82
2023/09/17 01:53:51;;;;;;;7.50;5.40;;;;;;;27.05;42.34;101509.05;102897;1298;61414;-83
2023/09/17 01:56:17;;;;;;;6.50;5.50;;;;;;;27.05;42.34;101507.60;103013;1294;61402;-82
2023/09/17 01:58:44;;;;;;;6.00;5.20;;;;;;;27.05;42.50;101502.73;102967;1293;61462;-82
2023/09/17 02:01:10;;;;;;;7.10;5.90;;;;;;;27.05;42.55;101503.67;103074;1297;61405;-82
2023/09/17 02:03:36;;;;;;;6.10;5.20;;;;;;;27.05;42.32;101501.30;102938;1297;62539;-83
2023/09/17 02:06:04;;;;;;;6.90;5.50;;;;;;;27.04;42.38;101502.64;102910;1293;62014;-83
2023/09/17 02:08:31;;;;;;;6.30;5.50;;;;;;;27.04;42.26;101502.06;102963;1293;61314;-82
2023/09/17 02:10:56;;;;;;;6.80;5.20;;;;;;;27.04;42.60;101501.70;103162;1297;61406;-83
2023/09/17 02:13:22;;;;;;;8.60;5.30;;;;;;;27.04;42.34;101500.98;103036;1294;61813;-83
2023/09/17 02:15:48;;;;;;;6.40;5.10;;;;;;;27.04;42.38;101499.76;102963;1299;61551;-83
2023/09/17 02:18:14;;;;;;;6.70;5.50;;;;;;;27.03;42.51;101498.52;102997;1297;61554;-82
2023/09/17 02:20:40;;;;;;;6.60;5.60;;;;;;;27.04;42.61;101494.54;103027;1299;61221;-82
2023/09/17 02:23:09;;;;;;;7.20;5.40;;;;;;;27.04;42.60;101494.88;102745;1299;65389;-82
2023/09/17 02:25:35;;;;;;;6.10;5.50;;;;;;;27.03;42.65;101493.48;103143;1295;65841;-82
2023/09/17 02:28:02;;;;;;;7.70;5.30;;;;;;;27.03;42.48;101490.77;102732;1299;61504;-83
2023/09/17 02:30:31;;;;;;;5.90;5.30;;;;;;;27.03;42.45;101493.67;103226;1294;61395;-83
2023/09/17 02:32:56;;;;;;;6.10;5.20;;;;;;;27.04;42.55;101495.61;102749;1299;61312;-83
2023/09/17 02:35:22;;;;;;;6.60;5.50;;;;;;;27.03;42.46;101489.33;102758;1292;61511;-82
2023/09/17 02:37:51;;;;;;;6.80;5.50;;;;;;;27.03;42.41;101493.11;102777;1294;61401;-82
2023/09/17 02:40:16;;;;;;;6.40;5.40;;;;;;;27.03;42.66;101491.69;103096;1294;62429;-82
2023/09/17 02:42:44;;;;;;;6.00;5.20;;;;;;;27.03;42.44;101489.00;103172;1292;61318;-82
2023/09/17 02:45:09;;;;;;;5.90;5.00;;;;;;;27.02;42.55;101485.80;102705;1295;64722;-82
2023/09/17 02:47:35;;;;;;;6.70;5.40;;;;;;;27.03;42.55;101489.02;102817;1297;61458;-82
2023/09/17 02:50:01;;;;;;;6.40;5.40;;;;;;;27.03;42.36;101488.48;102962;1292;61960;-82
2023/09/17 02:52:26;;;;;;;7.50;5.70;;;;;;;27.02;42.34;101485.79;102994;1297;61362;-82
2023/09/17 02:54:54;;;;;;;7.80;5.60;;;;;;;27.02;42.38;101485.79;103165;1297;62331;-83
2023/09/17 02:57:19;;;;;;;6.40;5.50;;;;;;;27.02;42.50;101485.61;102732;1299;61421;-83
2023/09/17 02:59:46;;;;;;;6.60;5.00;;;;;;;27.03;42.41;101482.31;103000;1297;61434;-82
2023/09/17 03:02:11;;;;;;;7.00;5.70;;;;;;;27.02;42.35;101480.40;102991;1298;61571;-83
2023/09/17 03:04:38;;;;;;;6.20;5.40;;;;;;;27.02;42.53;101479.85;102986;1300;61565;-83
2023/09/17 03:07:04;;;;;;;7.40;5.60;;;;;;;27.02;42.74;101483.27;102471;1294;73969;-82
2023/09/17 03:09:30;;;;;;;6.90;5.60;;;;;;;27.02;42.69;101485.25;102922;1297;61454;-83
2023/09/17 03:11:56;;;;;;;6.40;5.50;;;;;;;27.02;42.62;101484.20;103206;1292;61493;-83
2023/09/17 03:14:22;;;;;;;5.80;5.20;;;;;;;27.02;42.54;101490.38;102942;1293;61497;-82
2023/09/17 03:16:48;;;;;;;6.00;5.40;;;;;;;27.01;42.38;101490.04;103001;1298;61401;-83
2023/09/17 03:19:14;;;;;;;6.10;5.40;;;;;;;27.02;42.49;101494.86;103137;1297;61383;-82
2023/09/17 03:21:40;;;;;;;7.20;5.30;;;;;;;27.01;42.35;101497.61;103004;1292;61399;-83
2023/09/17 03:24:09;;;;;;;7.20;5.70;;;;;;;27.02;42.36;101498.34;103201;1294;61419;-82
2023/09/17 03:26:39;;;;;;;6.00;4.90;;;;;;;27.01;42.55;101497.48;103058;1292;64022;-82
2023/09/17 03:29:06;;;;;;;7.50;5.70;;;;;;;27.01;42.38;101499.13;102918;1294;65661;-83
2023/09/17 03:31:32;;;;;;;6.70;5.90;;;;;;;27.01;42.60;101503.61;102888;1294;61304;-82
2023/09/17 03:33:58;;;;;;;6.40;5.30;;;;;;;27.01;42.42;101504.55;102939;1295;61494;-83
2023/09/17 03:36:23;;;;;;;6.70;5.50;;;;;;;27.00;42.38;101508.00;103136;1297;61315;-83
2023/09/17 03:38:49;;;;;;;6.00;5.40;;;;;;;27.00;42.40;101507.45;102969;1294;61395;-82
2023/09/17 03:41:15;;;;;;;6.90;5.60;;;;;;;27.00;42.52;101510.73;102899;1293;61488;-82
2023/09/17 03:43:40;;;;;;;6.80;5.60;;;;;;;27.00;42.59;101509.48;103118;1298;61379;-82
2023/09/17 03:46:06;;;;;;;6.90;5.40;;;;;;;27.00;42.49;101509.45;102959;1293;61832;-82
2023/09/17 03:48:32;;;;;;;6.50;5.40;;;;;;;27.00;42.41;101506.39;103010;1298;61437;-82
2023/09/17 03:50:59;;;;;;;6.90;5.70;;;;;;;27.00;42.70;101508.96;103118;1296;61397;-82
2023/09/17 03:53:24;;;;;;;6.50;5.20;;;;;;;27.00;42.82;101509.31;102771;1297;61975;-82
2023/09/17 03:55:50;;;;;;;6.20;5.50;;;;;;;27.00;42.48;101512.56;102742;1297;61408;-82
2023/09/17 03:58:16;;;;;;;7.70;5.60;;;;;;;26.99;42.56;101512.10;102927;1299;61473;-82
2023/09/17 04:00:44;;;;;;;6.80;5.80;;;;;;;27.00;42.58;101512.41;103120;1295;61402;-82
2023/09/17 04:03:17;;;;;;;6.00;5.40;;;;;;;26.99;42.49;101511.56;103118;1293;66039;-83
2023/09/17 04:05:51;;;;;;;7.80;5.90;;;;;;;26.99;42.57;101512.30;103119;1293;61434;-83
2023/09/17 04:08:16;;;;;;;6.60;5.50;;;;;;;26.99;42.59;101511.90;102949;1295;61301;-82
2023/09/17 04:10:43;;;;;;;6.20;5.40;;;;;;;27.00;42.54;101511.52;102924;1298;61463;-82
2023/09/17 04:13:10;;;;;;;7.20;5.60;;;;;;;27.00;42.48;101512.79;103006;1292;66045;-83
2023/09/17 04:15:36;;;;;;;7.00;5.60;;;;;;;26.99;42.49;101512.46;103159;1293;61469;-83
2023/09/17 04:18:04;;;;;;;7.50;5.70;;;;;;;26.99;42.57;101512.45;102749;1298;61307;-83
2023/09/17 04:20:29;;;;;;;7.80;5.30;;;;;;;26.99;42.50;101519.14;102802;1293;64469;-83
2023/09/17 04:22:55;;;;;;;6.70;5.70;;;;;;;26.99;42.60;101518.07;102947;1295;61454;-82
2023/09/17 04:25:21;;;;;;;7.10;5.40;;;;;;;26.99;42.45;101521.11;102957;1294;61396;-83
2023/09/17 04:27:47;;;;;;;6.50;5.40;;;;;;;26.99;42.79;101524.20;103212;1293;61420;-83
2023/09/17 04:30:14;;;;;;;6.60;5.40;;;;;;;26.99;42.58;101525.63;102761;1293;61820;-83
2023/09/17 04:32:40;;;;;;;6.30;5.40;;;;;;;26.99;42.69;101528.88;102912;1295;61385;-82
2023/09/17 04:35:11;;;;;;;7.00;5.30;;;;;;;26.99;42.61;101531.27;102901;1297;61371;-82
2023/09/17 04:37:39;;;;;;;7.10;5.30;;;;;;;26.99;42.71;101536.11;103134;1297;61313;-83
2023/09/17 04:40:08;;;;;;;7.60;5.60;;;;;;;27.00;42.58;101540.97;102713;1292;63948;-83
2023/09/17 04:42:36;;;;;;;7.20;5.30;;;;;;;27.00;42.64;101540.95;102766;1297;65925;-83
2023/09/17 04:45:04;;;;;;;6.50;5.20;;;;;;;27.00;42.53;101540.58;102902;1299;61896;-83
2023/09/17 04:47:34;;;;;;;6.20;5.30;;;;;;;27.00;42.38;101545.67;102732;1295;62102;-83
2023/09/17 04:50:02;;;;;;;6.40;5.60;;;;;;;27.00;42.52;101543.85;102925;1299;63635;-83
2023/09/17 04:52:27;;;;;;;6.00;5.30;;;;;;;27.00;42.47;101546.35;103092;1291;66041;-83
2023/09/17 04:54:53;;;;;;;7.00;5.30;;;;;;;26.99;42.68;101548.74;102996;1298;61421;-83
2023/09/17 04:57:18;;;;;;;5.90;5.30;;;;;;;26.99;42.58;101546.38;103161;1297;61720;-83
2023/09/17 04:59:45;;;;;;;7.20;5.10;;;;;;;27.00;42.63;101547.24;102928;1298;61422;-83
2023/09/17 05:02:14;;;;;;;6.80;5.20;;;;;;;27.00;42.71;101550.33;102921;1298;61444;-83
2023/09/17 05:04:41;;;;;;;6.50;5.10;;;;;;;26.99;42.60;101546.95;102835;1298;61299;-82
2023/09/17 05:07:07;;;;;;;6.40;5.30;;;;;;;27.00;42.61;101545.98;102971;1297;61406;-83
2023/09/17 05:09:33;;;;;;;9.10;5.70;;;;;;;27.00;42.68;101548.33;102976;1298;61478;-82
2023/09/17 05:11:59;;;;;;;8.50;5.10;;;;;;;26.99;42.61;101549.48;102783;1297;62153;-82
2023/09/17 05:14:25;;;;;;;7.60;5.80;;;;;;;27.00;42.64;101550.52;102916;1298;61510;-82
2023/09/17 05:16:50;;;;;;;8.30;6.10;;;;;;;27.00;42.52;101549.06;102829;1299;61318;-82
2023/09/17 05:19:16;;;;;;;6.90;5.40;;;;;;;27.00;42.55;101546.36;102993;1298;61417;-82
2023/09/17 05:21:42;;;;;;;6.00;5.20;;;;;;;27.00;42.37;101547.44;103187;1293;61401;-82
2023/09/17 05:24:08;;;;;;;6.00;5.40;;;;;;;27.00;42.54;101551.77;102992;1293;65756;-82
2023/09/17 05:26:34;;;;;;;6.10;5.20;;;;;;;27.00;42.73;101552.86;103138;1292;61416;-83
2023/09/17 05:28:59;;;;;;;7.20;5.40;;;;;;;27.00;42.68;101553.92;103042;1294;61368;-82
2023/09/17 05:31:25;;;;;;;7.00;5.60;;;;;;;27.00;42.62;101553.94;102935;1298;61397;-82
2023/09/17 05:33:53;;;;;;;6.80;5.90;;;;;;;27.00;42.50;101553.77;102945;1293;61550;-83
2023/09/17 05:36:18;;;;;;;6.20;5.30;;;;;;;27.00;42.53;101554.66;102959;1297;61584;-83
2023/09/17 05:38:44;;;;;;;6.70;5.30;;;;;;;27.00;42.67;101554.86;103015;1293;61433;-83
2023/09/17 05:41:12;;;;;;;6.20;5.20;;;;;;;27.00;42.72;101551.04;103077;1296;61375;-82
2023/09/17 05:43:40;;;;;;;6.60;5.40;;;;;;;27.01;42.56;101552.79;102876;1298;63768;-82
2023/09/17 05:46:05;;;;;;;6.90;5.20;;;;;;;27.01;42.67;101553.35;102899;1298;66000;-82
2023/09/17 05:48:31;;;;;;;6.50;5.30;;;;;;;27.00;42.51;101555.35;102979;1297;61892;-83
2023/09/17 05:50:57;;;;;;;6.00;5.10;;;;;;;27.00;42.55;101554.44;103029;1294;61422;-83
2023/09/17 05:53:23;;;;;;;7.40;5.50;;;;;;;27.01;42.77;101554.77;102927;1293;61489;-82
2023/09/17 05:55:49;;;;;;;6.70;5.20;;;;;;;27.01;42.68;101555.83;103040;1297;61450;-82
2023/09/17 05:58:15;;;;;;;6.30;5.40;;;;;;;27.01;42.62;101557.11;102776;1299;61444;-82
2023/09/17 06:00:40;;;;;;;6.50;5.30;;;;;;;27.01;42.79;101559.05;102979;1297;61401;-83
2023/09/17 06:03:06;;;;;;;5.90;5.20;;;;;;;27.01;42.55;101556.34;103056;1297;61479;-83
2023/09/17 06:05:32;;;;;;;7.00;5.70;;;;;;;27.02;42.57;101555.92;102911;1293;62105;-83
2023/09/17 06:07:57;;;;;;;5.60;5.00;;;;;;;27.02;42.54;101558.29;102946;1298;61421;-83
2023/09/17 06:10:23;;;;;;;6.60;5.20;;;;;;;27.02;42.64;101558.98;102728;1298;61390;-82
2023/09/17 06:12:49;;;;;;;6.60;5.60;;;;;;;27.02;42.60;101559.52;102876;1299;61390;-82
2023/09/17 06:15:14;;;;;;;6.10;5.30;;;;;;;27.03;42.64;101559.63;102641;1300;61508;-82
2023/09/17 06:17:40;;;;;;;6.40;5.00;;;;;;;27.03;42.62;101559.10;102946;1292;61308;-82
2023/09/17 06:20:07;;;;;;;5.50;4.80;;;;;;;27.04;42.89;101559.20;102876;1298;61877;-81
2023/09/17 06:22:34;;;;;;;6.40;5.40;;;;;;;27.03;42.58;101559.08;102677;1299;61373;-82
2023/09/17 06:24:59;;;;;;;5.90;5.30;;;;;;;27.03;42.88;101559.59;103037;1293;61400;-82
2023/09/17 06:27:25;;;;;;;7.10;5.30;;;;;;;27.04;42.84;101564.02;102893;1299;61407;-82
2023/09/17 06:29:51;;;;;;;6.20;4.90;;;;;;;27.05;42.52;101562.91;102758;1299;61400;-82
2023/09/17 06:32:16;;;;;;;6.30;5.20;;;;;;;27.06;42.86;101559.04;102933;1293;61424;-82
2023/09/17 06:34:42;;;;;;;5.70;5.10;;;;;;;27.06;42.84;101563.71;102987;1296;61499;-83
2023/09/17 06:37:08;;;;;;;5.60;5.00;;;;;;;27.07;42.77;101569.41;102761;1298;62527;-83
2023/09/17 06:39:34;;;;;;;5.80;4.80;;;;;;;27.07;42.83;101571.71;103057;1297;61432;-82
2023/09/17 06:42:00;;;;;;;6.40;4.60;;;;;;;27.08;42.78;101573.31;102773;1292;61417;-82
2023/09/17 06:44:26;;;;;;;6.70;4.80;;;;;;;27.08;42.76;101575.05;103120;1294;61350;-83
2023/09/17 06:46:51;;;;;;;6.00;4.90;;;;;;;27.09;43.06;101570.87;102898;1297;62803;-83
2023/09/17 06:49:18;;;;;;;5.90;5.20;;;;;;;27.10;42.84;101574.91;102938;1293;61485;-83
2023/09/17 06:51:44;;;;;;;5.80;5.00;;;;;;;27.10;42.97;101574.16;102750;1293;61408;-83
2023/09/17 06:54:09;;;;;;;6.10;5.20;;;;;;;27.11;42.99;101576.61;103103;1293;62305;-83
2023/09/17 06:56:35;;;;;;;5.30;4.60;;;;;;;27.12;43.09;101578.90;103072;1294;61312;-83
2023/09/17 06:59:02;;;;;;;7.10;5.10;;;;;;;27.13;42.90;101580.10;103222;1294;62192;-83
2023/09/17 07:01:28;;;;;;;6.30;5.20;;;;;;;27.13;43.06;101574.16;102827;1293;61363;-82
2023/09/17 07:03:53;;;;;;;6.90;5.20;;;;;;;27.14;43.07;101577.84;102933;1294;61471;-82
2023/09/17 07:06:20;;;;;;;6.30;5.10;;;;;;;27.14;43.14;101577.81;102901;1293;61462;-83
2023/09/17 07:08:48;;;;;;;6.40;5.30;;;;;;;27.14;43.12;101577.64;102986;1297;61363;-83
2023/09/17 07:11:14;;;;;;;5.60;4.60;;;;;;;27.15;43.06;101581.18;103163;1295;61345;-82
2023/09/17 07:13:40;;;;;;;5.90;4.80;;;;;;;27.16;43.19;101580.05;102738;1294;61792;-82
2023/09/17 07:16:07;;;;;;;5.50;4.90;;;;;;;27.16;43.14;101579.62;102940;1298;61463;-82
2023/09/17 07:18:34;;;;;;;6.60;4.90;;;;;;;27.17;43.15;101580.31;102951;1294;61495;-83
2023/09/17 07:21:00;;;;;;;6.30;5.00;;;;;;;27.17;42.79;101579.04;102755;1293;61353;-82
2023/09/17 07:23:25;;;;;;;5.70;5.00;;;;;;;27.17;43.21;101583.54;102902;1294;61497;-83
2023/09/17 07:25:51;;;;;;;7.20;5.10;;;;;;;27.17;43.28;101582.65;103211;1294;61398;-82
2023/09/17 07:28:18;;;;;;;5.90;5.20;;;;;;;27.17;42.93;101582.08;102941;1297;61401;-83
2023/09/17 07:30:46;;;;;;;5.70;5.10;;;;;;;27.17;43.00;101581.40;102858;1297;61402;-83
2023/09/17 07:33:12;;;;;;;6.10;5.20;;;;;;;27.17;43.15;101581.23;102980;1297;61434;-83
2023/09/17 07:35:38;;;;;;;5.70;5.00;;;;;;;27.17;43.22;101584.60;103018;1298;61519;-83
2023/09/17 07:38:04;;;;;;;6.30;4.90;;;;;;;27.17;43.15;101587.67;102748;1292;61437;-82
2023/09/17 07:40:30;;;;;;;5.40;4.40;;;;;;;27.18;43.25;101586.03;102928;1299;61461;-82
2023/09/17 07:42:55;;;;;;;6.20;5.20;;;;;;;27.18;43.18;101585.84;103085;1295;61299;-83
2023/09/17 07:45:21;;;;;;;5.80;4.70;;;;;;;27.18;43.33;101588.73;102941;1294;65709;-83
2023/09/17 07:47:47;;;;;;;5.90;5.00;;;;;;;27.18;43.29;101591.99;102993;1293;61474;-83
2023/09/17 07:50:12;;;;;;;6.20;5.30;;;;;;;27.18;43.06;101595.95;103218;1292;61501;-83
2023/09/17 07:52:39;;;;;;;6.00;5.00;;;;;;;27.18;43.04;101597.39;102946;1295;61829;-83
2023/09/17 07:55:05;;;;;;;5.90;5.00;;;;;;;27.17;43.16;101598.89;102811;1296;61690;-84
2023/09/17 07:57:31;;;;;;;5.50;4.70;;;;;;;27.18;43.03;101595.78;102995;1294;61500;-82
2023/09/17 07:59:57;;;;;;;5.90;5.00;;;;;;;27.19;43.14;101592.45;103104;1297;61317;-82
2023/09/17 08:02:22;;;;;;;6.50;5.30;;;;;;;27.18;43.04;101587.96;103051;1294;61401;-82
2023/09/17 08:04:48;;;;;;;6.00;4.80;;;;;;;27.18;43.24;101589.98;103171;1292;63866;-82
2023/09/17 08:07:14;;;;;;;7.40;5.10;;;;;;;27.18;43.27;101588.73;103155;1297;61496;-82
2023/09/17 08:09:40;;;;;;;7.00;5.20;;;;;;;27.17;43.01;101586.96;102921;1292;61338;-82
2023/09/17 08:12:06;;;;;;;6.60;5.40;;;;;;;27.17;43.21;101588.39;103036;1295;61415;-82
2023/09/17 08:14:34;;;;;;;5.70;5.00;;;;;;;27.17;42.99;101582.66;103117;1297;61395;-82
2023/09/17 08:17:01;;;;;;;6.20;4.90;;;;;;;27.16;42.99;101585.95;102951;1293;62096;-83
2023/09/17 08:19:27;;;;;;;6.30;5.20;;;;;;;27.16;43.06;101583.24;103003;1294;61343;-83
2023/09/17 08:21:52;;;;;;;6.30;5.10;;;;;;;27.17;43.16;101578.00;103188;1295;61413;-83
2023/09/17 08:24:20;;;;;;;6.30;5.10;;;;;;;27.17;43.00;101579.80;102961;1292;61484;-83
2023/09/17 08:26:49;;;;;;;6.50;5.20;;;;;;;27.16;42.85;101577.67;103164;1296;61352;-83
2023/09/17 08:29:15;;;;;;;5.70;4.90;;;;;;;27.16;42.86;101574.08;102901;1293;61328;-83
2023/09/17 08:31:40;;;;;;;6.90;5.30;;;;;;;27.15;43.17;101568.38;102978;1295;61973;-82
2023/09/17 08:34:06;;;;;;;5.80;4.80;;;;;;;27.15;43.20;101568.55;103148;1297;61418;-83
2023/09/17 08:36:32;;;;;;;6.00;5.10;;;;;;;27.16;42.96;101569.61;103156;1293;61483;-82
2023/09/17 08:38:58;;;;;;;6.40;5.00;;;;;;;27.15;43.03;101569.63;103277;1295;61441;-83
2023/09/17 08:41:24;;;;;;;5.70;5.10;;;;;;;27.15;43.13;101568.54;102978;1298;61421;-82
2023/09/17 08:43:52;;;;;;;6.20;5.00;;;;;;;27.15;42.96;101567.27;102948;1294;61305;-83
2023/09/17 08:46:20;;;;;;;6.30;5.40;;;;;;;27.15;43.12;101567.29;102919;1292;63965;-83
2023/09/17 08:48:46;;;;;;;7.50;5.10;;;;;;;27.15;43.14;101568.17;103148;1291;65867;-82
2023/09/17 08:51:12;;;;;;;6.40;5.00;;;;;;;27.15;43.20;101562.92;102990;1298;61382;-83
2023/09/17 08:53:50;;;;;;;5.70;4.80;;;;;;;27.16;43.03;101560.19;102938;1292;62095;-82
2023/09/17 08:56:17;;;;;;;5.80;5.10;;;;;;;27.16;43.05;101562.02;102994;1293;64044;-83
2023/09/17 08:58:52;;;;;;;6.30;5.20;;;;;;;27.16;42.84;101560.56;102768;1295;65856;-82
2023/09/17 09:01:18;;;;;;;5.90;5.10;;;;;;;27.15;42.93;101560.05;102954;1294;61430;-83
2023/09/17 09:03:44;;;;;;;6.90;5.20;;;;;;;27.15;43.17;101559.13;102702;1299;61411;-83
2023/09/17 09:06:10;;;;;;;7.60;5.60;;;;;;;27.15;43.07;101557.88;103075;1294;61405;-83
2023/09/17 09:08:36;;;;;;;6.70;5.00;;;;;;;27.15;43.29;101554.63;102884;1294;61389;-83
2023/09/17 09:11:02;;;;;;;5.80;5.00;;;;;;;27.15;43.25;101556.22;103249;1297;61882;-83
2023/09/17 09:13:27;;;;;;;6.50;5.30;;;;;;;27.16;43.29;101558.56;102884;1298;61378;-83
2023/09/17 09:15:54;;;;;;;6.60;5.50;;;;;;;27.16;43.05;101551.86;102821;1293;61931;-83
2023/09/17 09:18:19;;;;;;;5.80;4.80;;;;;;;27.16;42.81;101553.48;102749;1294;63789;-83
2023/09/17 09:20:45;;;;;;;5.40;4.80;;;;;;;27.17;42.97;101555.73;103125;1297;61393;-82
2023/09/17 09:23:11;;;;;;;5.80;4.80;;;;;;;27.16;43.03;101554.86;103175;1292;61420;-82
2023/09/17 09:25:36;;;;;;;6.20;5.10;;;;;;;27.17;42.97;101557.01;103112;1293;61391;-83
2023/09/17 09:28:02;;;;;;;6.40;5.20;;;;;;;27.18;42.89;101559.45;103121;1297;61411;-83
2023/09/17 09:30:28;;;;;;;6.40;5.20;;;;;;;27.18;43.02;101557.81;103158;1295;61415;-82
2023/09/17 09:32:54;;;;;;;6.00;4.90;;;;;;;27.17;42.92;101555.33;102892;1293;65880;-82
2023/09/17 09:35:19;;;;;;;5.80;5.00;;;;;;;27.17;43.00;101554.06;103121;1294;61359;-82
2023/09/17 09:37:45;;;;;;;5.70;5.00;;;;;;;27.18;43.09;101553.88;102947;1292;61414;-83
2023/09/17 09:40:13;;;;;;;6.10;5.10;;;;;;;27.18;42.89;101549.14;103182;1293;61299;-82
2023/09/17 09:42:38;;;;;;;7.70;4.90;;;;;;;27.18;42.94;101546.77;102849;1298;61340;-82
2023/09/17 09:45:04;;;;;;;5.60;5.00;;;;;;;27.19;43.03;101548.90;103097;1297;61429;-82
2023/09/17 09:47:30;;;;;;;7.20;5.30;;;;;;;27.19;43.12;101550.34;102962;1294;62226;-82
2023/09/17 09:49:56;;;;;;;6.70;5.10;;;;;;;27.19;43.02;101548.71;102796;1299;61333;-82
2023/09/17 09:52:25;;;;;;;6.50;5.00;;;;;;;27.19;42.99;101546.73;102984;1297;61408;-82
2023/09/17 09:54:51;;;;;;;6.10;5.10;;;;;;;27.19;42.93;101549.77;103039;1294;61353;-82
2023/09/17 09:57:18;;;;;;;5.60;4.90;;;;;;;27.19;43.16;101541.98;103131;1293;61338;-82
2023/09/17 09:59:45;;;;;;;5.90;5.20;;;;;;;27.18;43.00;101540.06;102919;1300;61394;-82
2023/09/17 10:02:12;;;;;;;5.70;5.10;;;;;;;27.18;42.72;101541.89;102798;1296;61850;-82
2023/09/17 10:04:38;;;;;;;6.00;5.40;;;;;;;27.19;43.08;101540.41;103148;1294;61426;-82
2023/09/17 10:07:04;;;;;;;5.70;4.90;;;;;;;27.18;43.13;101542.05;102921;1297;61403;-82
2023/09/17 10:09:30;;;;;;;6.30;5.00;;;;;;;27.18;42.93;101542.43;103171;1295;61429;-82
2023/09/17 10:11:55;;;;;;;6.60;5.30;;;;;;;27.19;42.85;101540.03;103008;1295;61560;-83
2023/09/17 10:14:21;;;;;;;5.90;4.90;;;;;;;27.19;42.99;101533.71;103255;1294;61484;-82
2023/09/17 10:16:51;;;;;;;5.80;4.70;;;;;;;27.18;43.02;101527.77;103061;1294;61369;-82
2023/09/17 10:19:20;;;;;;;7.20;5.10;;;;;;;27.18;43.00;101519.83;102954;1295;64031;-83
2023/09/17 10:21:49;;;;;;;6.50;5.20;;;;;;;27.19;42.87;101523.77;103106;1294;65661;-83
2023/09/17 10:24:18;;;;;;;6.00;5.00;;;;;;;27.19;42.93;101525.04;103096;1295;61380;-83
2023/09/17 10:26:43;;;;;;;;;;;;;;;27.18;42.96;101527.06;103128;1294;61305;-82
2023/09/17 10:29:13;;;;;;;7.00;4.90;;;;;;;27.17;42.99;101526.82;103218;1292;61419;-83
2023/09/17 10:31:42;;;;;;;6.10;5.00;;;;;;;27.17;43.08;101523.91;103083;1295;65787;-82
2023/09/17 10:34:09;;;;;;;8.70;5.00;;;;;;;27.18;42.90;101525.15;103191;1292;61405;-83
2023/09/17 10:36:38;;;;;;;6.00;5.30;;;;;;;27.18;42.95;101526.04;103420;1293;62313;-83
2023/09/17 10:39:06;;;;;;;5.70;5.00;;;;;;;27.18;42.92;101523.86;103336;1296;63846;-83
2023/09/17 10:41:32;;;;;;;5.70;4.70;;;;;;;27.18;42.98;101518.92;103220;1294;65609;-83
2023/09/17 10:43:58;;;;;;;6.10;5.20;;;;;;;27.18;42.97;101513.16;103108;1294;61397;-83
2023/09/17 10:46:24;;;;;;;5.90;5.10;;;;;;;27.19;43.11;101512.92;103150;1294;61415;-83
2023/09/17 10:48:53;;;;;;;6.20;5.20;;;;;;;27.19;42.93;101520.45;103034;1294;61337;-83
2023/09/17 10:51:19;;;;;;;6.50;5.00;;;;;;;27.20;42.79;101516.23;103127;1294;65839;-83
2023/09/17 10:53:44;;;;;;;5.80;5.00;;;;;;;27.20;42.77;101513.73;102887;1294;62155;-83
2023/09/17 10:56:11;;;;;;;6.10;5.50;;;;;;;27.20;42.78;101504.81;103127;1294;61858;-81
2023/09/17 10:58:37;;;;;;;5.80;5.20;;;;;;;27.20;42.75;101504.16;103031;1292;61375;-81
2023/09/17 11:01:03;;;;;;;6.40;5.10;;;;;;;27.20;42.69;101505.58;103271;1293;61498;-82
2023/09/17 11:03:29;;;;;;;6.50;5.10;;;;;;;27.21;42.55;101505.90;103119;1294;61313;-82
2023/09/17 11:05:55;;;;;;;6.00;5.20;;;;;;;27.20;42.45;101501.96;103022;1294;61410;-82
2023/09/17 11:08:20;;;;;;;5.40;4.60;;;;;;;27.21;42.87;101502.11;102929;1294;61433;-82
2023/09/17 11:10:46;;;;;;;6.00;5.30;;;;;;;27.20;42.55;101498.51;102871;1294;61798;-82
2023/09/17 11:13:12;;;;;;;5.90;4.90;;;;;;;27.20;42.50;101492.41;103123;1293;61473;-82